Time;durP1;ratioP1;P1;durP2;ratioP2;P2;SDS_P1;SDS_P2;PMS_P1;PMS_P2;Temp;Humidity;BMP_temperature;BMP_pressure;BME280_temperature;BME280_humidity;BME280_pressure;Samples;Min_cycle;Max_cycle;Signal;HPM_P1;HPM_P2
2022/05/06 00:01:37;;;;;;;29.63;23.17;;;;;;;11.89;100.00;102411.38;6435415;23;20387;-70
2022/05/06 00:04:09;;;;;;;31.95;23.55;;;;;;;11.95;100.00;102412.75;6435108;23;20062;-70
2022/05/06 00:06:40;;;;;;;32.20;23.77;;;;;;;11.78;100.00;102423.47;6435620;23;20005;-70
2022/05/06 00:09:12;;;;;;;29.58;23.33;;;;;;;11.79;100.00;102415.50;6434670;23;20009;-70
2022/05/06 00:11:43;;;;;;;32.17;24.90;;;;;;;11.72;100.00;102421.25;6435642;23;20005;-71
2022/05/06 00:14:14;;;;;;;28.73;23.50;;;;;;;11.64;100.00;102421.75;6435143;23;20017;-70
2022/05/06 00:16:46;;;;;;;29.00;24.00;;;;;;;11.64;100.00;102421.75;6434620;23;20013;-70
2022/05/06 00:19:17;;;;;;;29.88;24.42;;;;;;;11.73;100.00;102431.66;6435099;23;20510;-70
2022/05/06 00:21:48;;;;;;;29.02;23.20;;;;;;;11.61;100.00;102427.19;6435084;23;20432;-70
2022/05/06 00:24:19;;;;;;;30.38;22.95;;;;;;;11.62;100.00;102423.63;6433854;23;20448;-70
2022/05/06 00:26:51;;;;;;;35.20;24.42;;;;;;;11.55;100.00;102431.03;6435145;23;20494;-70
2022/05/06 00:29:22;;;;;;;32.88;24.35;;;;;;;11.54;100.00;102428.53;6433979;23;20067;-70
2022/05/06 00:31:53;;;;;;;32.78;24.63;;;;;;;11.43;100.00;102421.31;6434897;23;20008;-70
2022/05/06 00:34:25;;;;;;;31.23;23.13;;;;;;;11.45;100.00;102428.16;6435120;23;20047;-70
2022/05/06 00:36:56;;;;;;;32.80;24.05;;;;;;;11.39;100.00;102433.78;6434355;23;20415;-70
2022/05/06 00:39:28;;;;;;;30.20;23.63;;;;;;;11.36;100.00;102431.34;6435628;23;20000;-70
2022/05/06 00:41:59;;;;;;;32.38;23.95;;;;;;;11.30;100.00;102428.28;6434772;23;20016;-69
2022/05/06 00:44:31;;;;;;;30.85;24.92;;;;;;;11.29;100.00;102431.84;6434542;23;20009;-70
2022/05/06 00:47:04;;;;;;;30.52;22.85;;;;;;;11.29;100.00;102427.44;6434289;23;20005;-70
2022/05/06 00:49:36;;;;;;;27.38;21.75;;;;;;;11.33;100.00;102428.09;6434462;23;20454;-70
2022/05/06 00:52:09;;;;;;;28.45;22.52;;;;;;;11.20;100.00;102415.72;6435717;23;20009;-70
2022/05/06 00:54:40;;;;;;;32.58;23.85;;;;;;;11.31;100.00;102416.84;6435532;23;20000;-70
2022/05/06 00:57:12;;;;;;;34.30;24.02;;;;;;;11.25;100.00;102419.84;6433817;23;20001;-69
2022/05/06 01:02:33;;;;;;;32.22;23.90;;;;;;;11.10;100.00;102424.25;6434830;23;20013;-70
2022/05/06 01:05:05;;;;;;;32.42;24.17;;;;;;;11.18;100.00;102429.91;6434422;23;20005;-70
2022/05/06 01:07:37;;;;;;;30.70;23.88;;;;;;;11.14;100.00;102428.41;6434195;23;20497;-70
2022/05/06 01:10:09;;;;;;;31.20;22.88;;;;;;;11.19;100.00;102428.97;6434701;23;20009;-70
2022/05/06 01:12:40;;;;;;;33.20;23.83;;;;;;;11.23;100.00;102427.81;6435525;23;20013;-70
2022/05/06 01:15:22;;;;;;;28.67;22.50;;;;;;;11.18;100.00;102430.75;6436325;23;20016;-70
2022/05/06 01:17:55;;;;;;;30.13;23.08;;;;;;;11.15;100.00;102430.94;6436001;23;20123;-70
2022/05/06 01:20:26;;;;;;;31.95;24.35;;;;;;;11.17;100.00;102422.94;6436928;23;20185;-70
2022/05/06 01:22:59;;;;;;;31.58;22.92;;;;;;;11.07;100.00;102425.31;6437029;23;20012;-70
2022/05/06 01:25:30;;;;;;;33.20;24.85;;;;;;;10.95;100.00;102420.84;6436042;23;19997;-68
2022/05/06 01:28:04;;;;;;;30.52;23.40;;;;;;;10.89;100.00;102435.16;6437495;23;20332;-70
2022/05/06 01:30:44;;;;;;;31.10;22.98;;;;;;;10.89;100.00;102424.66;6436330;23;20005;-69
2022/05/06 01:33:18;;;;;;;29.38;23.33;;;;;;;10.81;100.00;102429.53;6435251;23;20008;-70
2022/05/06 01:35:55;;;;;;;30.20;23.75;;;;;;;10.83;100.00;102435.50;6435680;23;20012;-70
2022/05/06 01:38:44;;;;;;;34.47;23.40;;;;;;;10.92;100.00;102436.75;6436689;23;20052;-70
2022/05/06 01:41:27;;;;;;;30.15;22.77;;;;;;;11.01;100.00;102427.47;6437074;23;20009;-69
2022/05/06 01:44:03;;;;;;;35.38;24.60;;;;;;;10.89;100.00;102435.16;6436563;23;20116;-70
2022/05/06 01:46:38;;;;;;;36.83;25.48;;;;;;;10.89;100.00;102429.91;6435729;23;20028;-70
2022/05/06 01:49:12;;;;;;;68.53;25.65;;;;;;;10.77;100.00;102429.81;6436220;23;20021;-69
2022/05/06 01:51:44;;;;;;;59.72;26.38;;;;;;;10.77;100.00;102433.28;6436765;23;20009;-69
2022/05/06 01:54:16;;;;;;;35.40;25.42;;;;;;;10.72;100.00;102435.34;6436091;23;20005;-70
2022/05/06 01:56:47;;;;;;;57.83;24.27;;;;;;;10.70;100.00;102435.41;6435896;23;20004;-70
2022/05/06 01:59:18;;;;;;;38.92;25.27;;;;;;;10.73;100.00;102439.63;6436190;23;20025;-70
2022/05/06 02:01:50;;;;;;;72.65;26.23;;;;;;;10.66;100.00;102433.06;6435100;23;20067;-69
2022/05/06 02:07:11;;;;;;;107.38;26.55;;;;;;;10.52;100.00;102431.25;6435604;23;20016;-70
2022/05/06 02:09:42;;;;;;;56.75;25.70;;;;;;;10.73;100.00;102439.63;6435764;23;20005;-69
2022/05/06 02:12:13;;;;;;;44.83;25.75;;;;;;;10.64;100.00;102429.69;6436519;23;20020;-70
2022/05/06 02:14:45;;;;;;;67.80;25.77;;;;;;;10.61;100.00;102430.72;6436899;23;20001;-70
2022/05/06 02:17:16;;;;;;;38.00;25.38;;;;;;;10.70;100.00;102424.09;6435495;23;20009;-69
2022/05/06 02:19:47;;;;;;;53.45;26.27;;;;;;;10.65;100.00;102436.63;6436228;23;20009;-70
2022/05/06 02:22:19;;;;;;;38.38;25.13;;;;;;;10.65;100.00;102432.22;6436712;23;20363;-69
2022/05/06 02:24:50;;;;;;;46.28;26.27;;;;;;;10.66;100.00;102433.91;6435499;23;20377;-69
2022/05/06 02:27:22;;;;;;;39.28;25.45;;;;;;;10.70;100.00;102439.81;6435986;23;20009;-70
2022/05/06 02:35:33;;;;;;;38.45;24.48;;;;;;;10.66;100.00;102436.53;6436227;23;20017;-70
2022/05/06 02:38:08;;;;;;;81.88;24.95;;;;;;;10.51;100.00;102434.81;6409138;23;20083;-70
2022/05/06 02:40:40;;;;;;;42.67;23.35;;;;;;;10.52;100.00;102433.03;6436307;23;20348;-69
2022/05/06 02:43:11;;;;;;;38.00;22.90;;;;;;;10.54;100.00;102437.25;6436239;23;20005;-69
2022/05/06 02:45:43;;;;;;;45.97;23.40;;;;;;;10.45;100.00;102449.13;6435590;23;20463;-69
2022/05/06 02:48:14;;;;;;;41.03;21.75;;;;;;;10.34;100.00;102446.31;6435552;23;20113;-69
2022/05/06 02:50:47;;;;;;;66.28;22.17;;;;;;;10.31;100.00;102448.25;6435766;23;20013;-70
2022/05/06 02:53:21;;;;;;;101.70;24.63;;;;;;;10.30;100.00;102450.00;6436256;23;20012;-69
2022/05/06 02:55:52;;;;;;;40.63;22.98;;;;;;;10.27;100.00;102450.22;6435575;23;20005;-69
2022/05/06 02:58:24;;;;;;;32.17;21.50;;;;;;;10.31;100.00;102450.88;6435300;23;20001;-69
2022/05/06 03:00:55;;;;;;;68.50;23.05;;;;;;;10.29;100.00;102445.72;6436346;23;20005;-69
2022/05/06 03:03:26;;;;;;;47.75;22.58;;;;;;;10.26;100.00;102443.25;6435745;23;20040;-69
2022/05/06 03:05:57;;;;;;;31.50;23.33;;;;;;;10.29;100.00;102445.72;6435451;23;20008;-70
2022/05/06 03:08:29;;;;;;;61.55;23.95;;;;;;;10.23;100.00;102446.03;6435331;23;20442;-70
2022/05/06 03:11:00;;;;;;;30.35;22.02;;;;;;;10.31;100.00;102438.63;6435637;23;20060;-70
2022/05/06 03:13:31;;;;;;;37.92;23.13;;;;;;;10.28;100.00;102437.94;6436957;23;20042;-70
2022/05/06 03:16:03;;;;;;;86.85;21.77;;;;;;;10.28;100.00;102441.41;6435961;23;20484;-69
2022/05/06 03:18:35;;;;;;;32.25;20.58;;;;;;;10.32;100.00;102442.91;6433337;23;20415;-69
2022/05/06 03:21:06;;;;;;;37.35;21.45;;;;;;;10.26;100.00;102440.63;6434091;23;20013;-69
2022/05/06 03:23:38;;;;;;;35.42;21.17;;;;;;;10.28;100.00;102435.31;6435524;23;20004;-69
2022/05/06 03:26:09;;;;;;;65.88;21.52;;;;;;;10.24;100.00;102438.09;6432253;23;20432;-68
2022/05/06 03:28:40;;;;;;;83.30;22.02;;;;;;;10.16;100.00;102437.69;6435222;23;20007;-69
2022/05/06 03:31:14;;;;;;;79.78;21.63;;;;;;;10.15;100.00;102441.25;6434676;23;20012;-69
2022/05/06 03:33:45;;;;;;;38.05;19.17;;;;;;;10.17;100.00;102443.78;6435114;23;20009;-69
2022/05/06 03:36:16;;;;;;;32.80;19.10;;;;;;;10.12;100.00;102446.66;6434631;23;20012;-69
2022/05/06 03:38:48;;;;;;;33.05;17.85;;;;;;;10.17;100.00;102441.16;6435362;23;20005;-70
2022/05/06 03:41:19;;;;;;;51.28;17.77;;;;;;;10.16;100.00;102442.94;6435272;23;20476;-70
2022/05/06 03:43:50;;;;;;;46.50;18.00;;;;;;;10.17;100.00;102444.59;6434563;23;20896;-69
2022/05/06 03:46:22;;;;;;;70.63;19.50;;;;;;;10.09;100.00;102438.13;6435364;23;20084;-70
2022/05/06 03:48:53;;;;;;;28.35;18.33;;;;;;;10.19;100.00;102442.75;6434744;23;20100;-69
2022/05/06 03:51:24;;;;;;;35.88;17.98;;;;;;;10.20;100.00;102440.97;6435092;23;20504;-69
2022/05/06 03:53:57;;;;;;;98.38;18.85;;;;;;;10.08;100.00;102431.22;6434592;23;20008;-70
2022/05/06 03:56:29;;;;;;;41.60;19.67;;;;;;;10.06;100.00;102440.91;6435224;23;20008;-70
2022/05/06 03:59:00;;;;;;;31.83;19.23;;;;;;;10.10;100.00;102439.81;6434271;23;20008;-69
2022/05/06 04:01:33;;;;;;;77.28;19.80;;;;;;;10.02;100.00;102447.25;6434167;23;20340;-69
2022/05/06 04:04:04;;;;;;;43.53;18.30;;;;;;;10.01;100.00;102446.44;6433354;23;20533;-69
2022/05/06 04:06:35;;;;;;;35.58;18.05;;;;;;;10.00;100.00;102444.75;6432845;23;20235;-70
2022/05/06 04:09:07;;;;;;;42.97;18.75;;;;;;;10.01;100.00;102443.81;6434878;23;20008;-70
2022/05/06 04:11:38;;;;;;;79.25;20.55;;;;;;;10.01;100.00;102446.44;6434292;23;20051;-70
2022/05/06 04:14:10;;;;;;;27.35;18.75;;;;;;;10.11;100.00;102450.19;6434110;23;20704;-70
2022/05/06 04:16:42;;;;;;;22.65;18.98;;;;;;;10.14;100.00;102451.78;6435437;23;20021;-70
2022/05/06 04:19:13;;;;;;;34.10;18.95;;;;;;;10.19;100.00;102449.75;6433337;23;20724;-70
2022/05/06 04:24:34;;;;;;;57.67;18.48;;;;;;;10.18;100.00;102450.69;6434321;23;20009;-69
2022/05/06 04:27:06;;;;;;;37.38;20.85;;;;;;;10.16;100.00;102455.19;6434475;23;20395;-70
2022/05/06 04:29:37;;;;;;;52.05;19.77;;;;;;;10.08;100.00;102460.03;6433481;23;20015;-70
2022/05/06 04:32:09;;;;;;;30.25;18.25;;;;;;;10.12;100.00;102457.13;6434933;23;20048;-69
2022/05/06 04:34:40;;;;;;;32.13;18.05;;;;;;;10.12;100.00;102461.53;6434388;23;20012;-69
2022/05/06 04:37:11;;;;;;;77.50;20.17;;;;;;;10.10;100.00;102458.13;6434903;23;19997;-70
2022/05/06 04:39:43;;;;;;;57.45;18.20;;;;;;;10.09;100.00;102459.94;6433976;23;20104;-69
2022/05/06 04:42:15;;;;;;;40.65;18.58;;;;;;;10.12;100.00;102467.63;6434674;23;20428;-69
2022/05/06 04:44:47;;;;;;;35.47;17.15;;;;;;;10.12;100.00;102461.53;6434040;23;20019;-69
2022/05/06 04:47:18;;;;;;;35.90;18.20;;;;;;;10.11;100.00;102468.53;6433512;23;20006;-69
2022/05/06 04:49:49;;;;;;;43.50;19.95;;;;;;;10.15;100.00;102475.31;6435004;23;20795;-70
2022/05/06 04:52:20;;;;;;;32.88;17.33;;;;;;;10.13;100.00;102474.53;6434619;23;20005;-69
2022/05/06 04:54:52;;;;;;;38.75;18.63;;;;;;;10.14;100.00;102477.97;6433530;23;20079;-70
2022/05/06 04:57:23;;;;;;;23.92;18.30;;;;;;;10.21;100.00;102474.09;6434452;23;19997;-70
2022/05/06 04:59:54;;;;;;;37.88;20.38;;;;;;;10.21;100.00;102471.47;6434365;23;20043;-70
2022/05/06 05:02:27;;;;;;;31.08;21.48;;;;;;;10.26;100.00;102476.47;6434690;23;20008;-70
2022/05/06 05:04:59;;;;;;;43.53;18.65;;;;;;;10.23;100.00;102485.34;6433432;23;20032;-69
2022/05/06 05:07:30;;;;;;;82.43;20.02;;;;;;;10.15;100.00;102482.28;6433887;23;20005;-70
2022/05/06 05:10:01;;;;;;;45.75;19.20;;;;;;;10.22;100.00;102492.31;6434813;23;20096;-70
2022/05/06 05:12:33;;;;;;;43.30;18.52;;;;;;;10.28;100.00;102488.56;6433718;23;20063;-70
2022/05/06 05:15:04;;;;;;;34.35;17.90;;;;;;;10.34;100.00;102498.69;6434532;23;20072;-68
2022/05/06 05:17:36;;;;;;;57.15;18.50;;;;;;;10.33;100.00;102496.16;6433898;23;19997;-68
2022/05/06 05:20:08;;;;;;;27.30;18.58;;;;;;;10.41;100.00;102500.00;6434116;23;20369;-71
2022/05/06 05:22:40;;;;;;;26.83;20.52;;;;;;;10.42;100.00;102504.34;6434322;23;20092;-69
2022/05/06 05:25:12;;;;;;;29.17;22.30;;;;;;;10.50;100.00;102505.66;6434354;23;20037;-70
2022/05/06 05:27:43;;;;;;;39.88;21.60;;;;;;;10.50;100.00;102510.91;6433543;23;20005;-70
2022/05/06 05:30:15;;;;;;;35.92;21.92;;;;;;;10.60;100.00;102496.31;6407328;23;20036;-70
2022/05/06 05:32:46;;;;;;;31.67;21.48;;;;;;;10.59;100.00;102494.66;6434255;23;20008;-68
2022/05/06 05:35:17;;;;;;;42.92;21.38;;;;;;;10.60;100.00;102491.91;6434351;23;20455;-70
2022/05/06 05:37:48;;;;;;;40.40;20.85;;;;;;;10.68;100.00;102494.97;6433934;23;20425;-70
2022/05/06 05:40:20;;;;;;;34.30;22.88;;;;;;;10.78;100.00;102503.09;6434358;23;20429;-68
2022/05/06 05:42:51;;;;;;;30.00;22.60;;;;;;;10.84;100.00;102499.28;6434788;23;20015;-70
2022/05/06 05:48:21;;;;;;;40.88;22.40;;;;;;;10.81;100.00;102502.94;6432877;23;20017;-70
2022/05/06 05:50:52;;;;;;;79.55;24.17;;;;;;;10.74;100.00;102504.22;6434405;23;20013;-70
2022/05/06 05:53:23;;;;;;;71.43;22.45;;;;;;;10.79;100.00;102507.41;6433877;23;20031;-68
2022/05/06 05:55:55;;;;;;;35.17;20.77;;;;;;;10.85;100.00;102495.72;6433967;23;20032;-68
2022/05/06 05:58:26;;;;;;;38.00;22.85;;;;;;;10.83;100.00;102506.28;6434625;23;20005;-70
2022/05/06 06:00:59;;;;;;;35.03;24.05;;;;;;;10.95;100.00;102504.75;6434890;23;20433;-71
2022/05/06 06:03:30;;;;;;;58.60;24.20;;;;;;;11.02;100.00;102507.81;6435749;23;20021;-70
2022/05/06 06:06:01;;;;;;;35.10;23.20;;;;;;;11.06;100.00;102504.94;6435910;23;20008;-68
2022/05/06 06:08:33;;;;;;;49.05;24.30;;;;;;;10.98;100.00;102491.41;6406786;23;20067;-71
2022/05/06 06:11:04;;;;;;;68.40;26.05;;;;;;;11.04;100.00;102500.72;6433328;23;20014;-70
2022/05/06 06:13:35;;;;;;;42.88;26.25;;;;;;;11.16;100.00;102497.34;6434229;23;20329;-70
2022/05/06 06:16:07;;;;;;;40.13;27.05;;;;;;;11.28;100.00;102493.13;6434762;23;20013;-71
2022/05/06 06:18:38;;;;;;;41.38;27.55;;;;;;;11.33;100.00;102497.16;6409662;23;20084;-71
2022/05/06 06:21:09;;;;;;;44.13;27.90;;;;;;;11.40;100.00;102498.47;6434710;23;20009;-70
2022/05/06 06:23:41;;;;;;;41.50;28.65;;;;;;;11.39;100.00;102485.44;6435815;23;20322;-70
2022/05/06 06:26:12;;;;;;;52.75;27.83;;;;;;;11.44;100.00;102493.88;6435707;23;20039;-69
2022/05/06 06:28:43;;;;;;;47.63;27.02;;;;;;;11.49;100.00;102494.44;6435749;23;20498;-73
2022/05/06 06:31:14;;;;;;;42.50;27.55;;;;;;;11.49;100.00;102496.22;6436524;23;20474;-73
2022/05/06 06:33:46;;;;;;;36.95;27.30;;;;;;;11.63;100.00;102499.66;6435800;23;20515;-70
2022/05/06 06:36:17;;;;;;;38.08;26.40;;;;;;;11.68;100.00;102502.00;6434747;23;20432;-70
2022/05/06 06:38:48;;;;;;;40.33;27.60;;;;;;;11.69;100.00;102499.25;6435639;23;20009;-69
2022/05/06 06:41:20;;;;;;;43.45;26.95;;;;;;;11.73;100.00;102492.03;6433489;23;20004;-71
2022/05/06 06:43:52;;;;;;;38.83;27.80;;;;;;;11.81;100.00;102494.19;6426908;23;20005;-71
2022/05/06 06:46:23;;;;;;;41.83;28.55;;;;;;;11.82;100.00;102490.59;6429921;23;20428;-69
2022/05/06 06:48:54;;;;;;;35.97;26.27;;;;;;;12.01;100.00;102498.19;6402656;23;20024;-71
2022/05/06 06:51:26;;;;;;;36.75;27.42;;;;;;;12.06;100.00;102498.75;6432456;23;20635;-71
2022/05/06 06:53:58;;;;;;;37.17;26.42;;;;;;;12.07;100.00;102503.03;6434145;23;20005;-71
2022/05/06 06:56:30;;;;;;;40.47;27.23;;;;;;;12.08;100.00;102508.19;6435037;23;20016;-70
2022/05/06 06:59:01;;;;;;;32.42;24.88;;;;;;;12.11;100.00;102515.03;6433840;23;20072;-70
2022/05/06 07:01:33;;;;;;;33.90;24.48;;;;;;;12.12;100.00;102525.47;6435078;23;20063;-70
2022/05/06 07:04:05;;;;;;;32.97;24.20;;;;;;;12.10;100.00;102529.13;6434256;23;20012;-71
2022/05/06 07:12:16;;;;;;;34.22;24.02;;;;;;;12.20;100.00;102526.72;6433185;23;20028;-69
2022/05/06 07:14:47;;;;;;;30.20;23.40;;;;;;;12.24;100.00;102529.09;6433082;23;20009;-71
2022/05/06 07:17:18;;;;;;;32.03;24.17;;;;;;;12.44;100.00;102532.19;6433480;23;20381;-70
2022/05/06 07:19:50;;;;;;;32.15;23.73;;;;;;;12.46;100.00;102535.53;6426582;23;20746;-69
2022/05/06 07:22:21;;;;;;;33.67;22.73;;;;;;;12.36;100.00;102536.16;6430996;23;20005;-71
2022/05/06 07:24:53;;;;;;;31.55;22.75;;;;;;;12.32;100.00;102539.94;6431901;23;20017;-71
2022/05/06 07:27:25;;;;;;;30.13;22.90;;;;;;;12.31;100.00;102538.25;6434502;23;20726;-71
2022/05/06 07:29:57;;;;;;;31.77;23.33;;;;;;;12.31;100.00;102540.00;6434265;23;20479;-71
2022/05/06 07:32:28;;;;;;;31.15;23.67;;;;;;;12.38;100.00;102550.03;6433167;23;20004;-71
2022/05/06 07:34:59;;;;;;;35.58;25.35;;;;;;;12.36;100.00;102549.31;6434417;23;20028;-71
2022/05/06 07:37:33;;;;;;;33.08;24.08;;;;;;;12.44;100.00;102554.06;6432948;23;20001;-69
2022/05/06 07:40:06;;;;;;;32.72;24.33;;;;;;;12.43;100.00;102551.53;6433503;23;20001;-72
2022/05/06 07:42:38;;;;;;;36.40;25.38;;;;;;;12.43;100.00;102557.63;6435207;23;20009;-71
2022/05/06 07:45:12;;;;;;;33.00;24.40;;;;;;;12.44;100.00;102564.56;6434789;23;20316;-72
2022/05/06 07:47:44;;;;;;;32.50;24.95;;;;;;;12.52;100.00;102569.31;6433997;23;20012;-70
2022/05/06 07:50:15;;;;;;;37.25;26.55;;;;;;;12.44;100.00;102569.00;6433606;23;20103;-69
2022/05/06 07:52:47;;;;;;;34.97;26.75;;;;;;;12.55;100.00;102572.59;6433777;23;20037;-71
2022/05/06 07:55:19;;;;;;;40.35;27.27;;;;;;;12.53;100.00;102573.63;6434509;23;20063;-72
2022/05/06 07:57:51;;;;;;;36.80;26.95;;;;;;;12.49;100.00;102572.16;6434382;23;20080;-72
2022/05/06 08:00:24;;;;;;;31.33;25.23;;;;;;;12.54;100.00;102573.56;6433542;23;20087;-69
2022/05/06 08:05:47;;;;;;;38.83;27.83;;;;;;;12.64;100.00;102574.63;6432195;23;20728;-69
2022/05/06 08:08:19;;;;;;;31.42;24.92;;;;;;;12.76;100.00;102566.84;6435600;23;20522;-72
2022/05/06 08:10:51;;;;;;;31.70;25.42;;;;;;;12.83;100.00;102582.13;6434559;23;20040;-71
2022/05/06 08:13:23;;;;;;;32.83;25.85;;;;;;;12.84;100.00;102577.69;6432258;23;20367;-71
2022/05/06 08:15:55;;;;;;;31.42;25.10;;;;;;;13.03;100.00;102577.31;6432452;23;20005;-71
2022/05/06 08:18:28;;;;;;;30.13;24.23;;;;;;;13.06;100.00;102577.09;6432660;23;20004;-71
2022/05/06 08:20:59;;;;;;;33.45;25.73;;;;;;;13.09;100.00;102575.13;6429603;23;20015;-72
2022/05/06 08:23:30;;;;;;;33.40;26.23;;;;;;;13.20;100.00;102579.66;6432150;23;20009;-72
2022/05/06 08:26:02;;;;;;;29.52;24.02;;;;;;;13.26;100.00;102578.41;6434135;23;20005;-72
2022/05/06 08:28:34;;;;;;;32.08;24.58;;;;;;;13.39;100.00;102579.25;6433276;23;20008;-71
2022/05/06 08:31:05;;;;;;;29.63;24.23;;;;;;;13.43;100.00;102574.63;6406134;23;20001;-72
2022/05/06 08:33:36;;;;;;;30.83;24.23;;;;;;;13.61;100.00;102570.72;6431962;23;20008;-71
2022/05/06 08:36:08;;;;;;;28.63;23.90;;;;;;;13.72;100.00;102564.69;6433035;23;20011;-72
2022/05/06 08:38:39;;;;;;;27.95;22.80;;;;;;;13.74;100.00;102560.16;6434874;23;20005;-71
2022/05/06 08:41:12;;;;;;;31.33;25.25;;;;;;;13.93;100.00;102557.88;6432798;23;20080;-72
2022/05/06 08:43:43;;;;;;;31.75;24.60;;;;;;;13.92;100.00;102561.47;6431977;23;20012;-72
2022/05/06 08:51:58;;;;;;;29.88;23.55;;;;;;;14.44;100.00;102548.94;6429445;23;20013;-71
2022/05/06 08:54:30;;;;;;;28.95;23.83;;;;;;;14.40;100.00;102550.97;6429570;23;20013;-70
2022/05/06 08:57:02;;;;;;;28.40;23.33;;;;;;;14.74;100.00;102554.59;6433819;23;20008;-72
2022/05/06 08:59:34;;;;;;;26.80;21.85;;;;;;;14.78;100.00;102549.94;6434046;23;20033;-73
2022/05/06 09:02:05;;;;;;;26.75;21.92;;;;;;;14.93;100.00;102553.22;6432078;23;20005;-70
2022/05/06 09:04:39;;;;;;;26.92;22.23;;;;;;;15.29;100.00;102549.53;6428398;23;20024;-71
2022/05/06 09:07:22;;;;;;;27.25;20.58;;;;;;;15.51;100.00;102535.47;6428639;23;20372;-72
2022/05/06 09:10:12;;;;;;;22.15;18.85;;;;;;;15.82;100.00;102542.69;6432225;23;20013;-72
2022/05/06 09:12:46;;;;;;;22.00;19.45;;;;;;;15.93;100.00;102543.63;6431617;23;20005;-72
2022/05/06 09:18:08;;;;;;;23.88;19.80;;;;;;;16.21;100.00;102543.09;6432522;23;20009;-72
2022/05/06 09:20:40;;;;;;;23.17;20.00;;;;;;;16.37;100.00;102541.81;6428510;23;20349;-69
2022/05/06 09:23:25;;;;;;;22.33;19.70;;;;;;;16.74;100.00;102524.59;6432829;23;20020;-71
2022/05/06 09:25:57;;;;;;;20.50;18.20;;;;;;;16.66;100.00;102532.28;6405229;23;20009;-70
2022/05/06 09:28:30;;;;;;;19.45;16.95;;;;;;;16.84;100.00;102539.69;6429626;23;20067;-71
2022/05/06 09:31:04;;;;;;;19.13;17.05;;;;;;;16.85;100.00;102530.75;6432415;23;20489;-72
2022/05/06 09:33:36;;;;;;;18.23;16.30;;;;;;;16.92;100.00;102534.56;6434274;23;20008;-72
2022/05/06 09:36:26;;;;;;;19.03;16.03;;;;;;;17.20;100.00;102528.59;6433935;23;20062;-72
2022/05/06 09:39:03;;;;;;;17.27;15.48;;;;;;;17.02;100.00;102536.31;6434529;23;20032;-71
2022/05/06 09:41:38;;;;;;;16.52;14.50;;;;;;;17.30;100.00;102523.31;6432772;23;20406;-72
2022/05/06 09:44:10;;;;;;;17.88;14.52;;;;;;;17.23;100.00;102522.19;6435070;23;20062;-72
2022/05/06 09:46:42;;;;;;;17.58;14.10;;;;;;;17.34;100.00;102521.25;6435005;23;20310;-72
2022/05/06 09:49:14;;;;;;;18.83;14.45;;;;;;;17.32;100.00;102524.03;6435095;23;20013;-72
2022/05/06 09:51:47;;;;;;;17.50;15.20;;;;;;;17.50;100.00;102516.28;6435085;23;20036;-73
2022/05/06 09:54:31;;;;;;;15.40;12.90;;;;;;;17.75;100.00;102522.94;6434296;23;20444;-72
2022/05/06 09:57:03;;;;;;;15.23;12.20;;;;;;;17.60;100.00;102516.31;6432352;23;20005;-71
2022/05/06 09:59:36;;;;;;;14.95;12.68;;;;;;;17.77;100.00;102514.84;6435363;23;20001;-73
2022/05/06 10:02:08;;;;;;;13.70;12.18;;;;;;;17.79;100.00;102526.16;6409368;23;20004;-73
2022/05/06 10:04:40;;;;;;;13.80;12.32;;;;;;;18.07;100.00;102522.72;6408479;23;20343;-70
2022/05/06 10:07:12;;;;;;;15.57;12.50;;;;;;;18.23;100.00;102517.72;6432586;23;20328;-72
2022/05/06 10:09:57;;;;;;;;;;;;;;;18.85;100.00;102514.72;6435334;23;20017;-72
2022/05/06 10:12:38;;;;;;;13.60;12.15;;;;;;;18.79;100.00;102515.28;6432258;23;19915;-73
2022/05/06 10:15:12;;;;;;;16.88;13.55;;;;;;;18.68;100.00;102506.50;6435264;23;20005;-72
2022/05/06 10:17:47;;;;;;;15.75;11.98;;;;;;;18.79;100.00;102508.19;6434373;23;20310;-73
2022/05/06 10:20:41;;;;;;;14.65;10.95;;;;;;;19.14;100.00;102506.69;6435022;23;20043;-70
2022/05/06 10:23:13;;;;;;;;;;;;;;;19.61;100.00;102499.44;6420657;23;20092;-70
2022/05/06 10:25:45;;;;;;;11.13;8.25;;;;;;;19.31;100.00;102502.41;6435014;23;19978;-73
2022/05/06 10:34:15;;;;;;;9.70;8.68;;;;;;;19.42;100.00;102496.88;6434285;23;20045;-71
2022/05/06 10:36:58;;;;;;;8.27;7.47;;;;;;;19.62;100.00;102493.19;6434191;23;20017;-73
2022/05/06 10:39:36;;;;;;;9.98;7.72;;;;;;;19.68;100.00;102497.88;6435295;23;20115;-72
2022/05/06 10:42:11;;;;;;;8.02;7.22;;;;;;;19.48;100.00;102492.81;6434757;23;20013;-73
2022/05/06 10:44:48;;;;;;;8.60;7.80;;;;;;;19.68;100.00;102486.41;6434441;23;20437;-73
2022/05/06 10:47:19;;;;;;;8.60;7.80;;;;;;;19.81;100.00;102483.38;6434292;23;20365;-73
2022/05/06 10:49:53;;;;;;;10.10;7.93;;;;;;;19.90;100.00;102479.81;6422995;23;20047;-73
2022/05/06 10:52:28;;;;;;;8.65;7.75;;;;;;;20.21;100.00;102469.63;6433579;23;20452;-73
2022/05/06 10:55:03;;;;;;;8.38;7.05;;;;;;;20.15;100.00;102476.41;6433578;23;20511;-75
2022/05/06 10:57:55;;;;;;;5.45;4.95;;;;;;;20.48;100.00;102478.47;6435114;23;20206;-71
2022/05/06 11:00:28;;;;;;;7.80;5.97;;;;;;;20.38;100.00;102467.91;6434520;23;20096;-71
2022/05/06 11:03:00;;;;;;;7.70;5.70;;;;;;;20.72;100.00;102476.03;6434051;23;20016;-72
2022/05/06 11:05:32;;;;;;;7.68;6.32;;;;;;;20.78;100.00;102474.53;6433565;23;20013;-72
2022/05/06 11:08:05;;;;;;;8.20;6.83;;;;;;;20.91;100.00;102469.63;6434508;23;20440;-75
2022/05/06 11:10:36;;;;;;;7.72;6.82;;;;;;;21.11;100.00;102470.22;6434550;23;20005;-72
2022/05/06 11:13:08;;;;;;;9.23;7.33;;;;;;;21.08;100.00;102460.72;6434826;23;20340;-73
2022/05/06 11:15:39;;;;;;;8.03;6.23;;;;;;;21.34;100.00;102460.69;6434635;23;20005;-73
2022/05/06 11:18:10;;;;;;;5.80;5.20;;;;;;;21.14;100.00;102465.41;6432006;23;20044;-71
2022/05/06 11:20:42;;;;;;;7.50;5.93;;;;;;;21.43;100.00;102458.88;6430439;23;20483;-75
2022/05/06 11:23:14;;;;;;;6.73;6.07;;;;;;;21.24;100.00;102459.09;6432711;23;20017;-71
2022/05/06 11:25:47;;;;;;;7.33;5.43;;;;;;;21.54;100.00;102460.41;6433333;23;20332;-72
2022/05/06 11:28:21;;;;;;;8.68;6.80;;;;;;;21.44;100.00;102454.34;6431205;23;20005;-77
2022/05/06 11:30:53;;;;;;;8.48;6.43;;;;;;;21.61;100.00;102448.91;6431091;23;20004;-71
2022/05/06 11:33:27;;;;;;;9.07;6.63;;;;;;;21.65;100.00;102440.59;6433239;23;20019;-74
2022/05/06 11:36:05;;;;;;;8.77;6.75;;;;;;;21.99;100.00;102451.13;6432065;23;20088;-74
2022/05/06 11:38:38;;;;;;;8.60;7.70;;;;;;;21.53;100.00;102446.22;6434300;23;20499;-72
2022/05/06 11:41:11;;;;;;;7.25;6.55;;;;;;;21.82;100.00;102440.44;6431475;23;20541;-72
2022/05/06 11:43:46;;;;;;;6.82;6.18;;;;;;;21.91;100.00;102440.44;6433410;23;20009;-72
2022/05/06 11:49:22;;;;;;;7.43;6.63;;;;;;;21.97;100.00;102445.97;6431635;23;20021;-73
2022/05/06 11:51:58;;;;;;;7.88;7.07;;;;;;;22.11;98.32;102437.25;6431403;23;20005;-72
2022/05/06 11:54:29;;;;;;;7.97;7.18;;;;;;;22.07;95.39;102433.28;6430768;23;20005;-75
2022/05/06 11:57:02;;;;;;;7.73;6.67;;;;;;;22.22;93.79;102425.44;6432553;23;20092;-73
2022/05/06 11:59:33;;;;;;;6.15;5.55;;;;;;;22.44;88.27;102425.75;6406978;23;20476;-73
2022/05/06 12:02:06;;;;;;;7.33;6.23;;;;;;;22.56;82.37;102417.22;6429904;23;20116;-75
2022/05/06 12:04:37;;;;;;;6.45;5.80;;;;;;;22.67;75.47;102420.53;6432342;23;20015;-75
2022/05/06 12:07:08;;;;;;;6.20;5.60;;;;;;;22.69;62.54;102419.38;6431171;23;20001;-72
2022/05/06 12:09:44;;;;;;;7.50;6.30;;;;;;;22.83;60.83;102404.44;6433160;23;20375;-74
2022/05/06 12:12:16;;;;;;;8.27;7.00;;;;;;;22.82;57.85;102405.44;6433797;23;20341;-72